createdAt,value
2022-08-29T00:00:23.128Z,98214.00
2022-08-29T00:02:53.858Z,98216.00
2022-08-29T00:05:27.031Z,98213.00
2022-08-29T00:07:58.348Z,98213.00
2022-08-29T00:10:27.020Z,98210.00
2022-08-29T00:12:57.836Z,98216.00
2022-08-29T00:15:27.132Z,98216.00
2022-08-29T00:17:55.030Z,98217.00
2022-08-29T00:20:34.504Z,98223.00
2022-08-29T00:23:05.774Z,98223.00
2022-08-29T00:25:33.716Z,98215.00
2022-08-29T00:28:01.913Z,98219.00
2022-08-29T00:30:30.195Z,98215.00
2022-08-29T00:32:58.274Z,98217.00
2022-08-29T00:35:29.399Z,98209.00
2022-08-29T00:37:59.591Z,98209.00
2022-08-29T00:40:35.155Z,98210.00
2022-08-29T00:43:04.859Z,98208.00
2022-08-29T00:45:33.935Z,98210.00
2022-08-29T00:48:06.916Z,98216.00
2022-08-29T00:50:40.991Z,98218.00
2022-08-29T00:53:16.030Z,98219.00
2022-08-29T00:55:51.189Z,98216.00
2022-08-29T00:58:27.028Z,98224.00
2022-08-29T01:00:55.877Z,98216.00
2022-08-29T01:03:23.831Z,98214.00
2022-08-29T01:05:52.708Z,98214.00
2022-08-29T01:08:20.547Z,98214.00
2022-08-29T01:11:07.154Z,98211.00
2022-08-29T01:13:42.735Z,98214.00
2022-08-29T01:16:14.635Z,98208.00
2022-08-29T01:18:47.628Z,98219.00
2022-08-29T01:21:25.450Z,98218.00
2022-08-29T01:24:08.483Z,98221.00
2022-08-29T01:26:39.912Z,98224.00
2022-08-29T01:29:07.739Z,98227.00
2022-08-29T01:31:56.867Z,98229.00
2022-08-29T01:34:28.799Z,98227.00
2022-08-29T01:37:00.324Z,98232.00
2022-08-29T01:39:32.216Z,98232.00
2022-08-29T01:42:05.101Z,98220.00
2022-08-29T01:44:33.493Z,98228.00
2022-08-29T01:47:03.474Z,98228.00
2022-08-29T01:49:34.431Z,98235.00
2022-08-29T01:52:05.297Z,98227.00
2022-08-29T01:54:34.196Z,98233.00
2022-08-29T01:57:03.597Z,98231.00
2022-08-29T01:59:33.176Z,98235.00
2022-08-29T02:02:06.128Z,98236.00
2022-08-29T02:04:35.329Z,98236.00
2022-08-29T02:07:03.626Z,98239.00
2022-08-29T02:09:31.708Z,98229.00
2022-08-29T02:12:07.109Z,98237.00
2022-08-29T02:14:36.844Z,98235.00
2022-08-29T02:17:07.462Z,98232.00
2022-08-29T02:19:38.838Z,98229.00
2022-08-29T02:22:08.496Z,98224.00
2022-08-29T02:24:36.393Z,98219.00
2022-08-29T02:27:04.669Z,98221.00
2022-08-29T02:29:37.890Z,98225.00
2022-08-29T02:32:12.004Z,98227.00
2022-08-29T02:34:43.933Z,98227.00
2022-08-29T02:37:13.332Z,98231.00
2022-08-29T02:39:41.188Z,98232.00
2022-08-29T02:42:09.073Z,98228.00
2022-08-29T02:44:36.854Z,98221.00
2022-08-29T02:47:05.063Z,98216.00
2022-08-29T02:49:34.523Z,98225.00
2022-08-29T02:52:04.585Z,98223.00
2022-08-29T02:54:32.435Z,98224.00
2022-08-29T02:57:00.284Z,98223.00
2022-08-29T02:59:28.725Z,98223.00
2022-08-29T03:01:56.741Z,98226.00
2022-08-29T03:04:24.690Z,98229.00
2022-08-29T03:06:54.072Z,98231.00
2022-08-29T03:09:21.874Z,98238.00
2022-08-29T03:11:56.132Z,98242.00
2022-08-29T03:14:24.559Z,98237.00
2022-08-29T03:16:52.775Z,98243.00
2022-08-29T03:19:20.577Z,98245.00
2022-08-29T03:21:48.576Z,98245.00
2022-08-29T03:24:17.794Z,98252.00
2022-08-29T03:26:56.822Z,98247.00
2022-08-29T03:29:25.634Z,98248.00
2022-08-29T03:31:53.771Z,98245.00
2022-08-29T03:34:21.763Z,98246.00
2022-08-29T03:36:49.542Z,98246.00
2022-08-29T03:39:18.873Z,98249.00
2022-08-29T03:41:46.965Z,98245.00
2022-08-29T03:44:15.418Z,98246.00
2022-08-29T03:46:43.326Z,98241.00
2022-08-29T03:49:11.219Z,98245.00
2022-08-29T03:51:40.660Z,98236.00
2022-08-29T03:54:08.930Z,98236.00
2022-08-29T03:56:38.359Z,98233.00
2022-08-29T03:59:06.257Z,98236.00
2022-08-29T04:01:34.201Z,98235.00
2022-08-29T04:04:02.066Z,98239.00
2022-08-29T04:06:29.874Z,98237.00
2022-08-29T04:08:59.077Z,98243.00
2022-08-29T04:11:28.892Z,98244.00
2022-08-29T04:13:58.085Z,98242.00
2022-08-29T04:16:30.816Z,98257.00
2022-08-29T04:18:59.699Z,98251.00
2022-08-29T04:21:27.623Z,98258.00
2022-08-29T04:23:56.060Z,98253.00
2022-08-29T04:26:39.447Z,98262.00
2022-08-29T04:29:12.276Z,98262.00
2022-08-29T04:31:41.391Z,98267.00
2022-08-29T04:34:12.214Z,98257.00
2022-08-29T04:36:42.755Z,98259.00
2022-08-29T04:39:11.448Z,98263.00
2022-08-29T04:41:43.109Z,98267.00
2022-08-29T04:44:13.567Z,98269.00
2022-08-29T04:46:41.476Z,98268.00
2022-08-29T04:49:09.428Z,98267.00
2022-08-29T04:51:37.944Z,98272.00
2022-08-29T04:54:06.964Z,98274.00
2022-08-29T04:56:35.631Z,98284.00
2022-08-29T04:59:05.524Z,98291.00
2022-08-29T05:01:35.043Z,98280.00
2022-08-29T05:04:02.992Z,98287.00
2022-08-29T05:06:30.851Z,98286.00
2022-08-29T05:08:59.077Z,98291.00
2022-08-29T05:11:30.139Z,98299.00
2022-08-29T05:13:58.914Z,98299.00
2022-08-29T05:16:27.411Z,98301.00
2022-08-29T05:18:56.888Z,98303.00
2022-08-29T05:21:27.222Z,98302.00
2022-08-29T05:23:57.185Z,98292.00
2022-08-29T05:26:26.278Z,98294.00
2022-08-29T05:29:02.642Z,98295.00
2022-08-29T05:31:30.745Z,98291.00
2022-08-29T05:34:00.479Z,98294.00
2022-08-29T05:36:44.071Z,98301.00
2022-08-29T05:39:11.875Z,98297.00
2022-08-29T05:41:41.745Z,98302.00
2022-08-29T05:44:09.925Z,98293.00
2022-08-29T05:46:37.740Z,98290.00
2022-08-29T05:49:07.136Z,98300.00
2022-08-29T05:51:39.604Z,98303.00
2022-08-29T05:54:08.198Z,98304.00
2022-08-29T05:56:36.265Z,98301.00
2022-08-29T05:59:04.342Z,98300.00
2022-08-29T06:01:34.575Z,98306.00
2022-08-29T06:04:03.233Z,98302.00
2022-08-29T06:06:32.538Z,98302.00
2022-08-29T06:09:01.293Z,98296.00
2022-08-29T06:11:33.697Z,98300.00
2022-08-29T06:14:02.945Z,98306.00
2022-08-29T06:16:32.381Z,98308.00
2022-08-29T06:19:01.207Z,98307.00
2022-08-29T06:21:29.133Z,98305.00
2022-08-29T06:23:58.994Z,98301.00
2022-08-29T06:26:26.877Z,98303.00
2022-08-29T06:28:54.798Z,98307.00
2022-08-29T06:31:28.056Z,98313.00
2022-08-29T06:33:59.256Z,98309.00
2022-08-29T06:36:28.194Z,98315.00
2022-08-29T06:38:58.789Z,98317.00
2022-08-29T06:41:27.635Z,98317.00
2022-08-29T06:43:58.020Z,98319.00
2022-08-29T06:46:29.754Z,98324.00
2022-08-29T06:48:59.495Z,98329.00
2022-08-29T06:51:32.872Z,98318.00
2022-08-29T06:54:02.763Z,98315.00
2022-08-29T06:56:31.542Z,98320.00
2022-08-29T06:59:00.005Z,98321.00
2022-08-29T07:01:28.520Z,98322.00
2022-08-29T07:03:58.828Z,98334.00
2022-08-29T07:06:28.321Z,98325.00
2022-08-29T07:08:56.928Z,98325.00
2022-08-29T07:11:29.998Z,98335.00
2022-08-29T07:14:00.325Z,98331.00
2022-08-29T07:16:29.512Z,98335.00
2022-08-29T07:18:57.329Z,98330.00
2022-08-29T07:21:27.434Z,98327.00
2022-08-29T07:23:58.322Z,98329.00
2022-08-29T07:26:31.609Z,98332.00
2022-08-29T07:29:03.189Z,98332.00
2022-08-29T07:31:32.300Z,98335.00
2022-08-29T07:34:02.553Z,98327.00
2022-08-29T07:36:34.013Z,98331.00
2022-08-29T07:39:03.195Z,98336.00
2022-08-29T07:41:32.555Z,98342.00
2022-08-29T07:44:00.434Z,98347.00
2022-08-29T07:46:29.125Z,98345.00
2022-08-29T07:48:59.794Z,98341.00
2022-08-29T07:51:29.263Z,98347.00
2022-08-29T07:53:58.512Z,98345.00
2022-08-29T07:56:37.901Z,98343.00
2022-08-29T07:59:07.899Z,98348.00
2022-08-29T08:01:36.154Z,98345.00
2022-08-29T08:04:05.315Z,98338.00
2022-08-29T08:06:36.676Z,98344.00
2022-08-29T08:09:06.581Z,98337.00
2022-08-29T08:11:38.081Z,98336.00
2022-08-29T08:14:06.051Z,98344.00
2022-08-29T08:16:34.742Z,98349.00
2022-08-29T08:19:02.863Z,98343.00
2022-08-29T08:21:31.512Z,98346.00
2022-08-29T08:23:59.455Z,98353.00
2022-08-29T08:26:27.595Z,98359.00
2022-08-29T08:28:56.751Z,98359.00
2022-08-29T08:31:25.170Z,98363.00
2022-08-29T08:33:53.852Z,98365.00
2022-08-29T08:36:26.601Z,98357.00
2022-08-29T08:38:56.256Z,98358.00
2022-08-29T08:41:42.111Z,98360.00
2022-08-29T08:44:39.490Z,98363.00
2022-08-29T08:47:10.528Z,98353.00
2022-08-29T08:49:47.614Z,98355.00
2022-08-29T08:52:23.260Z,98357.00
2022-08-29T08:54:58.247Z,98357.00
2022-08-29T08:57:36.905Z,98340.00
2022-08-29T09:00:10.740Z,98348.00
2022-08-29T09:02:57.888Z,98353.00
2022-08-29T09:05:49.312Z,98356.00
2022-08-29T09:08:31.264Z,98362.00
2022-08-29T09:11:04.941Z,98363.00
2022-08-29T09:13:47.087Z,98360.00
2022-08-29T09:16:26.429Z,98371.00
2022-08-29T09:18:57.307Z,98359.00
2022-08-29T09:21:41.661Z,98367.00
2022-08-29T09:24:20.029Z,98362.00
2022-08-29T09:26:47.842Z,98362.00
2022-08-29T09:29:21.074Z,98363.00
2022-08-29T09:32:08.856Z,98367.00
2022-08-29T09:35:06.851Z,98360.00
2022-08-29T09:37:33.984Z,98368.00
2022-08-29T09:40:09.936Z,98365.00
2022-08-29T09:42:42.674Z,98370.00
2022-08-29T09:45:23.881Z,98368.00
2022-08-29T09:48:14.238Z,98358.00
2022-08-29T09:50:42.691Z,98365.00
2022-08-29T09:53:16.601Z,98366.00
2022-08-29T09:55:53.897Z,98362.00
2022-08-29T09:58:39.549Z,98349.00
2022-08-29T10:01:12.178Z,98349.00
2022-08-29T10:03:52.751Z,98352.00
2022-08-29T10:06:25.531Z,98355.00
2022-08-29T10:09:02.579Z,98359.00
2022-08-29T10:11:44.061Z,98359.00
2022-08-29T10:14:17.983Z,98363.00
2022-08-29T10:16:54.243Z,98361.00
2022-08-29T10:19:34.353Z,98366.00
2022-08-29T10:22:13.931Z,98357.00
2022-08-29T10:24:58.344Z,98356.00
2022-08-29T10:27:35.455Z,98357.00
2022-08-29T10:30:12.201Z,98356.00
2022-08-29T10:33:04.842Z,98352.00
2022-08-29T10:35:43.572Z,98350.00
2022-08-29T10:38:25.497Z,98352.00
2022-08-29T10:41:05.417Z,98350.00
2022-08-29T10:43:40.993Z,98349.00
2022-08-29T10:46:41.536Z,98351.00
2022-08-29T10:49:24.694Z,98354.00
2022-08-29T10:52:07.975Z,98357.00
2022-08-29T10:54:51.967Z,98355.00
2022-08-29T10:57:41.738Z,98357.00
2022-08-29T11:00:16.647Z,98358.00
2022-08-29T11:02:53.915Z,98358.00
2022-08-29T11:05:27.878Z,98360.00
2022-08-29T11:08:06.259Z,98352.00
2022-08-29T11:10:40.585Z,98354.00
2022-08-29T11:13:16.368Z,98349.00
2022-08-29T11:15:54.278Z,98348.00
2022-08-29T11:18:28.527Z,98352.00
2022-08-29T11:21:04.419Z,98344.00
2022-08-29T11:23:42.573Z,98339.00
2022-08-29T11:26:36.559Z,98340.00
2022-08-29T11:29:22.317Z,98341.00
2022-08-29T11:32:00.257Z,98337.00
2022-08-29T11:35:03.753Z,98335.00
2022-08-29T11:38:01.300Z,98338.00
2022-08-29T11:43:45.424Z,98332.00
2022-08-29T11:46:16.176Z,98331.00
2022-08-29T11:48:46.110Z,98321.00
2022-08-29T11:51:37.484Z,98322.00
2022-08-29T11:54:54.748Z,98322.00
2022-08-29T11:57:47.835Z,98321.00
2022-08-29T12:00:48.880Z,98319.00
2022-08-29T12:03:46.535Z,98318.00
2022-08-29T12:06:43.160Z,98317.00
2022-08-29T12:09:46.680Z,98317.00
2022-08-29T12:12:35.782Z,98316.00
2022-08-29T12:15:51.856Z,98314.00
2022-08-29T12:18:41.236Z,98313.00
2022-08-29T12:21:48.729Z,98314.00
2022-08-29T12:24:37.717Z,98307.00
2022-08-29T12:27:06.075Z,98305.00
2022-08-29T12:29:44.559Z,98302.00
2022-08-29T12:32:50.889Z,98300.00
2022-08-29T12:36:08.400Z,98303.00
2022-08-29T12:38:53.338Z,98298.00
2022-08-29T12:41:41.338Z,98298.00
2022-08-29T12:44:16.698Z,98289.00
2022-08-29T12:46:51.444Z,98296.00
2022-08-29T12:49:25.460Z,98286.00
2022-08-29T12:52:01.031Z,98282.00
2022-08-29T12:54:36.661Z,98280.00
2022-08-29T12:57:08.989Z,98274.00
2022-08-29T12:59:36.905Z,98279.00
2022-08-29T13:02:06.879Z,98283.00
2022-08-29T13:04:38.907Z,98280.00
2022-08-29T13:07:18.113Z,98270.00
2022-08-29T13:09:52.710Z,98275.00
2022-08-29T13:12:26.294Z,98275.00
2022-08-29T13:15:01.262Z,98266.00
2022-08-29T13:17:34.542Z,98261.00
2022-08-29T13:20:45.758Z,98255.00
2022-08-29T13:23:26.465Z,98259.00
2022-08-29T13:26:00.911Z,98256.00
2022-08-29T13:28:37.786Z,98251.00
2022-08-29T13:31:26.034Z,98251.00
2022-08-29T13:34:23.896Z,98256.00
2022-08-29T13:37:01.137Z,98252.00
2022-08-29T13:39:48.097Z,98241.00
2022-08-29T13:42:33.773Z,98240.00
2022-08-29T13:45:20.488Z,98237.00
2022-08-29T13:48:00.707Z,98239.00
2022-08-29T13:50:30.159Z,98234.00
2022-08-29T13:52:59.933Z,98240.00
2022-08-29T13:55:29.247Z,98242.00
2022-08-29T13:57:57.805Z,98242.00
2022-08-29T14:00:32.199Z,98234.00
2022-08-29T14:03:07.025Z,98232.00
2022-08-29T14:05:36.209Z,98235.00
2022-08-29T14:08:07.585Z,98237.00
2022-08-29T14:10:35.542Z,98223.00
2022-08-29T14:13:04.494Z,98222.00
2022-08-29T14:15:33.029Z,98219.00
2022-08-29T14:18:00.916Z,98222.00
2022-08-29T14:20:28.735Z,98218.00
2022-08-29T14:22:56.769Z,98209.00
2022-08-29T14:25:26.133Z,98215.00
2022-08-29T14:27:54.947Z,98203.00
2022-08-29T14:30:25.057Z,98210.00
2022-08-29T14:32:52.967Z,98206.00
2022-08-29T14:35:26.688Z,98202.00
2022-08-29T14:37:56.201Z,98203.00
2022-08-29T14:40:26.395Z,98202.00
2022-08-29T14:42:57.156Z,98205.00
2022-08-29T14:45:25.286Z,98205.00
2022-08-29T14:47:53.146Z,98200.00
2022-08-29T14:50:21.099Z,98207.00
2022-08-29T14:52:48.894Z,98196.00
2022-08-29T14:55:17.784Z,98209.00
2022-08-29T14:57:47.149Z,98206.00
2022-08-29T15:00:19.912Z,98207.00
2022-08-29T15:02:48.107Z,98198.00
2022-08-29T15:05:16.361Z,98196.00
2022-08-29T15:07:45.011Z,98196.00
2022-08-29T15:10:15.337Z,98194.00
2022-08-29T15:12:43.544Z,98198.00
2022-08-29T15:15:13.968Z,98189.00
2022-08-29T15:17:43.609Z,98199.00
2022-08-29T15:23:01.313Z,98191.00
2022-08-29T15:25:29.209Z,98194.00
2022-08-29T15:27:57.013Z,98195.00
2022-08-29T15:30:27.086Z,98195.00
2022-08-29T15:32:54.913Z,98190.00
2022-08-29T15:35:22.932Z,98188.00
2022-08-29T15:37:50.870Z,98184.00
2022-08-29T15:40:19.452Z,98187.00
2022-08-29T15:42:47.692Z,98179.00
2022-08-29T15:45:15.609Z,98180.00
2022-08-29T15:47:46.595Z,98181.00
2022-08-29T15:50:15.875Z,98186.00
2022-08-29T15:52:44.024Z,98181.00
2022-08-29T15:55:12.707Z,98179.00
2022-08-29T15:57:51.629Z,98175.00
2022-08-29T16:00:29.812Z,98175.00
2022-08-29T16:03:02.735Z,98165.00
2022-08-29T16:05:32.630Z,98169.00
2022-08-29T16:08:00.820Z,98169.00
2022-08-29T16:10:28.812Z,98166.00
2022-08-29T16:12:56.829Z,98162.00
2022-08-29T16:15:24.989Z,98160.00
2022-08-29T16:17:53.334Z,98162.00
2022-08-29T16:20:22.616Z,98165.00
2022-08-29T16:22:50.479Z,98160.00
2022-08-29T16:25:18.448Z,98158.00
2022-08-29T16:27:46.373Z,98158.00
2022-08-29T16:30:16.476Z,98161.00
2022-08-29T16:32:44.374Z,98161.00
2022-08-29T16:35:13.682Z,98166.00
2022-08-29T16:37:42.867Z,98161.00
2022-08-29T16:40:13.576Z,98156.00
2022-08-29T16:42:41.639Z,98159.00
2022-08-29T16:45:23.940Z,98154.00
2022-08-29T16:47:56.779Z,98158.00
2022-08-29T16:50:26.291Z,98159.00
2022-08-29T16:52:55.592Z,98163.00
2022-08-29T16:55:24.012Z,98160.00
2022-08-29T16:58:05.768Z,98159.00
2022-08-29T17:00:33.873Z,98157.00
2022-08-29T17:03:01.943Z,98157.00
2022-08-29T17:05:30.489Z,98161.00
2022-08-29T17:07:58.564Z,98163.00
2022-08-29T17:10:25.424Z,98156.00
2022-08-29T17:12:52.164Z,98158.00
2022-08-29T17:15:19.393Z,98155.00
2022-08-29T17:17:47.512Z,98162.00
2022-08-29T17:20:15.666Z,98151.00
2022-08-29T17:22:43.459Z,98156.00
2022-08-29T17:25:12.931Z,98153.00
2022-08-29T17:27:42.902Z,98154.00
2022-08-29T17:30:23.076Z,98154.00
2022-08-29T17:32:50.980Z,98158.00
2022-08-29T17:35:19.033Z,98155.00
2022-08-29T17:37:46.816Z,98152.00
2022-08-29T17:40:16.914Z,98153.00
2022-08-29T17:42:46.084Z,98156.00
2022-08-29T17:45:14.072Z,98144.00
2022-08-29T17:47:41.984Z,98152.00
2022-08-29T17:50:10.669Z,98154.00
2022-08-29T17:52:39.163Z,98156.00
2022-08-29T17:55:08.663Z,98155.00
2022-08-29T17:57:37.875Z,98153.00
2022-08-29T18:00:07.512Z,98161.00
2022-08-29T18:02:35.364Z,98156.00
2022-08-29T18:05:03.916Z,98152.00
2022-08-29T18:07:31.868Z,98150.00
2022-08-29T18:10:01.267Z,98151.00
2022-08-29T18:12:29.349Z,98158.00
2022-08-29T18:14:58.520Z,98158.00
2022-08-29T18:17:26.328Z,98166.00
2022-08-29T18:19:54.195Z,98176.00
2022-08-29T18:22:21.999Z,98173.00
2022-08-29T18:24:49.851Z,98183.00
2022-08-29T18:27:17.664Z,98179.00
2022-08-29T18:29:46.143Z,98184.00
2022-08-29T18:32:15.305Z,98195.00
2022-08-29T18:34:43.134Z,98200.00
2022-08-29T18:37:11.090Z,98196.00
2022-08-29T18:39:39.269Z,98192.00
2022-08-29T18:42:20.314Z,98194.00
2022-08-29T18:44:56.097Z,98204.00
2022-08-29T18:47:25.320Z,98198.00
2022-08-29T18:50:11.098Z,98201.00
2022-08-29T18:52:39.136Z,98206.00
2022-08-29T18:55:08.447Z,98206.00
2022-08-29T18:57:44.200Z,98217.00
2022-08-29T19:00:14.132Z,98210.00
2022-08-29T19:02:43.549Z,98224.00
2022-08-29T19:05:11.892Z,98222.00
2022-08-29T19:07:39.945Z,98223.00
2022-08-29T19:10:09.413Z,98214.00
2022-08-29T19:12:37.373Z,98220.00
2022-08-29T19:15:06.130Z,98228.00
2022-08-29T19:17:35.577Z,98228.00
2022-08-29T19:20:27.445Z,98227.00
2022-08-29T19:22:56.429Z,98226.00
2022-08-29T19:25:24.758Z,98232.00
2022-08-29T19:27:53.018Z,98228.00
2022-08-29T19:30:21.561Z,98229.00
2022-08-29T19:32:49.932Z,98227.00
2022-08-29T19:35:19.622Z,98228.00
2022-08-29T19:37:47.738Z,98226.00
2022-08-29T19:40:18.745Z,98236.00
2022-08-29T19:42:47.817Z,98228.00
2022-08-29T19:45:18.289Z,98235.00
2022-08-29T19:47:46.225Z,98231.00
2022-08-29T19:50:20.947Z,98245.00
2022-08-29T19:52:49.661Z,98235.00
2022-08-29T19:55:20.921Z,98235.00
2022-08-29T19:57:51.449Z,98240.00
2022-08-29T20:00:24.107Z,98237.00
2022-08-29T20:02:53.223Z,98243.00
2022-08-29T20:05:23.548Z,98238.00
2022-08-29T20:07:51.820Z,98239.00
2022-08-29T20:10:23.528Z,98241.00
2022-08-29T20:12:53.064Z,98238.00
2022-08-29T20:15:28.968Z,98246.00
2022-08-29T20:18:00.200Z,98245.00
2022-08-29T20:20:36.046Z,98241.00
2022-08-29T20:23:04.867Z,98241.00
2022-08-29T20:25:34.349Z,98240.00
2022-08-29T20:28:03.338Z,98243.00
2022-08-29T20:30:33.728Z,98247.00
2022-08-29T20:33:02.736Z,98242.00
2022-08-29T20:35:49.458Z,98257.00
2022-08-29T20:38:17.433Z,98259.00
2022-08-29T20:40:46.907Z,98245.00
2022-08-29T20:43:15.341Z,98257.00
2022-08-29T20:45:44.108Z,98252.00
2022-08-29T20:48:13.154Z,98252.00
2022-08-29T20:50:42.903Z,98258.00
2022-08-29T20:53:12.806Z,98262.00
2022-08-29T20:55:43.312Z,98262.00
2022-08-29T20:58:11.101Z,98264.00
2022-08-29T21:00:38.994Z,98263.00
2022-08-29T21:03:24.345Z,98263.00
2022-08-29T21:05:53.551Z,98267.00
2022-08-29T21:08:24.299Z,98270.00
2022-08-29T21:10:53.716Z,98280.00
2022-08-29T21:13:21.892Z,98272.00
2022-08-29T21:15:50.495Z,98281.00
2022-08-29T21:18:21.360Z,98278.00
2022-08-29T21:20:55.204Z,98273.00
2022-08-29T21:23:25.664Z,98275.00
2022-08-29T21:25:55.190Z,98274.00
2022-08-29T21:28:24.761Z,98281.00
2022-08-29T21:30:53.513Z,98279.00
2022-08-29T21:33:22.201Z,98270.00
2022-08-29T21:35:50.353Z,98280.00
2022-08-29T21:38:19.761Z,98274.00
2022-08-29T21:40:50.626Z,98268.00
2022-08-29T21:43:19.222Z,98273.00
2022-08-29T21:45:47.160Z,98270.00
2022-08-29T21:48:15.040Z,98264.00
2022-08-29T21:50:43.159Z,98266.00
2022-08-29T21:53:12.265Z,98268.00
2022-08-29T21:55:41.824Z,98264.00
2022-08-29T21:58:09.658Z,98267.00
2022-08-29T22:00:41.880Z,98267.00
2022-08-29T22:03:12.382Z,98266.00
2022-08-29T22:05:43.826Z,98282.00
2022-08-29T22:08:13.930Z,98286.00
2022-08-29T22:10:44.155Z,98275.00
2022-08-29T22:13:12.137Z,98274.00
2022-08-29T22:15:57.817Z,98266.00
2022-08-29T22:18:26.376Z,98266.00
2022-08-29T22:20:55.127Z,98266.00
2022-08-29T22:23:24.801Z,98274.00
2022-08-29T22:25:55.158Z,98281.00
2022-08-29T22:28:23.977Z,98284.00
2022-08-29T22:30:52.337Z,98289.00
2022-08-29T22:33:20.345Z,98287.00
2022-08-29T22:35:50.202Z,98292.00
2022-08-29T22:38:18.037Z,98300.00
2022-08-29T22:40:47.827Z,98305.00
2022-08-29T22:43:17.252Z,98286.00
2022-08-29T22:45:45.514Z,98289.00
2022-08-29T22:48:18.814Z,98292.00
2022-08-29T22:50:54.093Z,98286.00
2022-08-29T22:53:26.269Z,98291.00
2022-08-29T22:55:54.141Z,98289.00
2022-08-29T22:58:23.458Z,98288.00
2022-08-29T23:00:51.280Z,98288.00
2022-08-29T23:03:19.379Z,98283.00
2022-08-29T23:05:47.529Z,98292.00
2022-08-29T23:08:17.043Z,98290.00
2022-08-29T23:10:49.020Z,98290.00
2022-08-29T23:13:17.786Z,98289.00
2022-08-29T23:15:47.091Z,98281.00
2022-08-29T23:18:14.956Z,98280.00
2022-08-29T23:20:42.770Z,98284.00
2022-08-29T23:23:15.035Z,98273.00
2022-08-29T23:25:43.106Z,98267.00
2022-08-29T23:28:10.942Z,98272.00
2022-08-29T23:30:38.989Z,98265.00
2022-08-29T23:33:08.526Z,98272.00
2022-08-29T23:35:37.019Z,98269.00
2022-08-29T23:38:04.986Z,98272.00
2022-08-29T23:40:35.599Z,98270.00
2022-08-29T23:43:04.729Z,98267.00
2022-08-29T23:45:33.003Z,98264.00
2022-08-29T23:48:00.938Z,98264.00
2022-08-29T23:50:30.176Z,98270.00
2022-08-29T23:52:58.177Z,98266.00
2022-08-29T23:55:26.027Z,98266.00
2022-08-29T23:57:54.242Z,98271.00
